createdAt,value
2018-07-31T00:00:46.015Z,1007.58
2018-07-31T00:01:46.005Z,1007.56
2018-07-31T00:02:46.002Z,1007.56
2018-07-31T00:03:45.980Z,1007.57
2018-07-31T00:04:46.038Z,1007.57
2018-07-31T00:05:45.961Z,1007.58
2018-07-31T00:06:45.950Z,1007.55
2018-07-31T00:07:45.941Z,1007.54
2018-07-31T00:08:45.930Z,1007.59
2018-07-31T00:09:45.981Z,1007.55
2018-07-31T00:10:45.912Z,1007.57
2018-07-31T00:11:45.895Z,1007.52
2018-07-31T00:12:45.887Z,1007.59
2018-07-31T00:13:45.876Z,1007.54
2018-07-31T00:14:45.931Z,1007.53
2018-07-31T00:15:45.854Z,1007.50
2018-07-31T00:16:46.486Z,1007.50
2018-07-31T00:17:45.831Z,1007.52
2018-07-31T00:18:45.822Z,1007.50
2018-07-31T00:19:45.881Z,1007.50
2018-07-31T00:20:45.798Z,1007.50
2018-07-31T00:21:45.853Z,1007.52
2018-07-31T00:22:45.776Z,1007.46
2018-07-31T00:23:45.766Z,1007.48
2018-07-31T00:24:45.755Z,1007.46
2018-07-31T00:25:45.809Z,1007.51
2018-07-31T00:26:45.729Z,1007.45
2018-07-31T00:27:45.721Z,1007.51
2018-07-31T00:28:45.710Z,1007.49
2018-07-31T00:29:45.698Z,1007.54
2018-07-31T00:30:45.751Z,1007.54
2018-07-31T00:31:45.674Z,1007.54
2018-07-31T00:32:45.663Z,1007.55
2018-07-31T00:33:45.662Z,1007.53
2018-07-31T00:34:45.644Z,1007.53
2018-07-31T00:35:45.696Z,1007.58
2018-07-31T00:36:45.645Z,1007.55
2018-07-31T00:37:46.489Z,1007.58
2018-07-31T00:38:45.602Z,1007.61
2018-07-31T00:39:45.599Z,1007.53
2018-07-31T00:40:45.641Z,1007.53
2018-07-31T00:41:45.566Z,1007.57
2018-07-31T00:42:45.555Z,1007.57
2018-07-31T00:43:45.544Z,1007.56
2018-07-31T00:44:45.535Z,1007.54
2018-07-31T00:45:45.594Z,1007.50
2018-07-31T00:46:45.513Z,1007.55
2018-07-31T00:47:45.505Z,1007.53
2018-07-31T00:48:45.494Z,1007.59
2018-07-31T00:49:45.480Z,1007.56
2018-07-31T00:50:45.559Z,1007.53
2018-07-31T00:51:45.461Z,1007.62
2018-07-31T00:52:45.450Z,1007.57
2018-07-31T00:53:45.434Z,1007.58
2018-07-31T00:54:45.425Z,1007.52
2018-07-31T00:55:45.477Z,1007.58
2018-07-31T00:56:45.404Z,1007.56
2018-07-31T00:57:45.397Z,1007.51
2018-07-31T00:58:45.984Z,1007.54
2018-07-31T00:59:45.372Z,1007.57
2018-07-31T01:00:45.422Z,1007.54
2018-07-31T01:01:45.350Z,1007.52
2018-07-31T01:02:45.339Z,1007.53
2018-07-31T01:03:45.332Z,1007.51
2018-07-31T01:04:45.318Z,1007.49
2018-07-31T01:05:45.369Z,1007.49
2018-07-31T01:06:45.337Z,1007.50
2018-07-31T01:07:45.283Z,1007.46
2018-07-31T01:08:45.275Z,1007.47
2018-07-31T01:09:45.271Z,1007.49
2018-07-31T01:10:45.317Z,1007.42
2018-07-31T01:11:45.244Z,1007.36
2018-07-31T01:12:45.231Z,1007.44
2018-07-31T01:13:45.223Z,1007.38
2018-07-31T01:14:45.209Z,1007.34
2018-07-31T01:15:45.260Z,1007.38
2018-07-31T01:16:45.191Z,1007.36
2018-07-31T01:17:45.178Z,1007.38
2018-07-31T01:18:45.168Z,1007.37
2018-07-31T01:19:45.990Z,1007.35
2018-07-31T01:20:45.206Z,1007.35
2018-07-31T01:21:45.134Z,1007.27
2018-07-31T01:22:45.121Z,1007.30
2018-07-31T01:23:45.110Z,1007.31
2018-07-31T01:24:45.099Z,1007.32
2018-07-31T01:25:45.559Z,1007.29
2018-07-31T01:26:45.079Z,1007.32
2018-07-31T01:27:45.068Z,1007.30
2018-07-31T01:28:45.057Z,1007.32
2018-07-31T01:29:45.046Z,1007.35
2018-07-31T01:30:45.099Z,1007.34
2018-07-31T01:31:45.027Z,1007.38
2018-07-31T01:32:45.015Z,1007.35
2018-07-31T01:33:45.001Z,1007.32
2018-07-31T01:34:44.994Z,1007.38
2018-07-31T01:35:45.048Z,1007.39
2018-07-31T01:36:44.971Z,1007.43
2018-07-31T01:37:44.966Z,1007.35
2018-07-31T01:38:44.951Z,1007.35
2018-07-31T01:39:44.940Z,1007.41
2018-07-31T01:40:45.060Z,1007.42
2018-07-31T01:41:44.918Z,1007.40
2018-07-31T01:42:44.910Z,1007.41
2018-07-31T01:43:44.896Z,1007.36
2018-07-31T01:44:44.887Z,1007.36
2018-07-31T01:45:44.948Z,1007.40
2018-07-31T01:46:44.868Z,1007.32
2018-07-31T01:47:44.857Z,1007.36
2018-07-31T01:48:44.848Z,1007.31
2018-07-31T01:49:44.832Z,1007.27
2018-07-31T01:50:44.885Z,1007.31
2018-07-31T01:51:44.813Z,1007.27
2018-07-31T01:52:44.804Z,1007.24
2018-07-31T01:53:45.493Z,1007.32
2018-07-31T01:54:44.780Z,1007.35
2018-07-31T01:55:44.833Z,1007.36
2018-07-31T01:56:44.760Z,1007.37
2018-07-31T01:57:45.489Z,1007.36
2018-07-31T01:58:44.736Z,1007.39
2018-07-31T01:59:44.817Z,1007.44
2018-07-31T02:00:44.793Z,1007.44
2018-07-31T02:01:45.484Z,1007.46
2018-07-31T02:02:44.697Z,1007.43
2018-07-31T02:03:44.688Z,1007.46
2018-07-31T02:04:44.750Z,1007.49
2018-07-31T02:05:44.666Z,1007.48
2018-07-31T02:06:44.716Z,1007.42
2018-07-31T02:07:44.651Z,1007.44
2018-07-31T02:08:44.633Z,1007.39
2018-07-31T02:09:44.622Z,1007.33
2018-07-31T02:10:44.616Z,1007.32
2018-07-31T02:11:44.671Z,1007.38
2018-07-31T02:12:44.594Z,1007.40
2018-07-31T02:13:44.589Z,1007.34
2018-07-31T02:14:44.569Z,1007.37
2018-07-31T02:15:44.558Z,1007.34
2018-07-31T02:16:44.630Z,1007.38
2018-07-31T02:17:44.537Z,1007.36
2018-07-31T02:18:44.525Z,1007.41
2018-07-31T02:19:44.514Z,1007.34
2018-07-31T02:20:44.503Z,1007.36
2018-07-31T02:21:44.561Z,1007.33
2018-07-31T02:22:44.985Z,1007.35
2018-07-31T02:23:44.478Z,1007.39
2018-07-31T02:24:44.467Z,1007.42
2018-07-31T02:25:44.456Z,1007.47
2018-07-31T02:26:44.506Z,1007.51
2018-07-31T02:27:44.436Z,1007.50
2018-07-31T02:28:44.484Z,1007.49
2018-07-31T02:29:44.415Z,1007.45
2018-07-31T02:30:44.401Z,1007.52
2018-07-31T02:31:44.456Z,1007.50
2018-07-31T02:32:44.379Z,1007.50
2018-07-31T02:33:44.370Z,1007.52
2018-07-31T02:34:44.364Z,1007.52
2018-07-31T02:35:44.350Z,1007.53
2018-07-31T02:36:44.401Z,1007.52
2018-07-31T02:37:44.329Z,1007.47
2018-07-31T02:38:44.317Z,1007.53
2018-07-31T02:39:44.306Z,1007.53
2018-07-31T02:40:44.300Z,1007.47
2018-07-31T02:41:44.354Z,1007.47
2018-07-31T02:42:44.275Z,1007.48
2018-07-31T02:43:44.991Z,1007.57
2018-07-31T02:44:44.253Z,1007.58
2018-07-31T02:45:44.243Z,1007.54
2018-07-31T02:46:44.298Z,1007.55
2018-07-31T02:47:44.224Z,1007.53
2018-07-31T02:48:44.209Z,1007.54
2018-07-31T02:49:44.201Z,1007.55
2018-07-31T02:50:44.190Z,1007.56
2018-07-31T02:51:44.243Z,1007.56
2018-07-31T02:52:44.176Z,1007.54
2018-07-31T02:53:44.157Z,1007.53
2018-07-31T02:54:44.149Z,1007.53
2018-07-31T02:55:44.138Z,1007.48
2018-07-31T02:56:44.193Z,1007.47
2018-07-31T02:57:44.114Z,1007.47
2018-07-31T02:58:44.108Z,1007.43
2018-07-31T02:59:44.099Z,1007.48
2018-07-31T03:00:44.084Z,1007.47
2018-07-31T03:01:44.137Z,1007.47
2018-07-31T03:02:44.065Z,1007.50
2018-07-31T03:03:44.051Z,1007.47
2018-07-31T03:04:44.983Z,1007.47
2018-07-31T03:05:44.032Z,1007.45
2018-07-31T03:06:51.608Z,1007.46
2018-07-31T03:07:52.136Z,1007.45
2018-07-31T03:08:43.999Z,1007.45
2018-07-31T03:09:52.052Z,1007.49
2018-07-31T03:10:43.985Z,1007.52
2018-07-31T03:11:44.029Z,1007.44
2018-07-31T03:12:43.955Z,1007.53
2018-07-31T03:13:43.946Z,1007.56
2018-07-31T03:14:43.936Z,1007.57
2018-07-31T03:15:43.922Z,1007.52
2018-07-31T03:16:43.975Z,1007.53
2018-07-31T03:17:51.998Z,1007.54
2018-07-31T03:18:43.893Z,1007.53
2018-07-31T03:19:43.888Z,1007.50
2018-07-31T03:20:43.869Z,1007.47
2018-07-31T03:21:43.927Z,1007.55
2018-07-31T03:22:43.846Z,1007.52
2018-07-31T03:23:43.839Z,1007.56
2018-07-31T03:24:43.825Z,1007.59
2018-07-31T03:25:43.818Z,1007.61
2018-07-31T03:26:44.190Z,1007.62
2018-07-31T03:27:43.794Z,1007.60
2018-07-31T03:28:43.783Z,1007.62
2018-07-31T03:29:43.778Z,1007.62
2018-07-31T03:30:43.761Z,1007.59
2018-07-31T03:31:43.820Z,1007.58
2018-07-31T03:32:43.745Z,1007.62
2018-07-31T03:33:43.734Z,1007.63
2018-07-31T03:34:43.735Z,1007.66
2018-07-31T03:35:43.712Z,1007.65
2018-07-31T03:36:43.761Z,1007.61
2018-07-31T03:37:43.687Z,1007.57
2018-07-31T03:38:44.613Z,1007.58
2018-07-31T03:39:43.672Z,1007.61
2018-07-31T03:40:43.656Z,1007.54
2018-07-31T03:41:43.711Z,1007.61
2018-07-31T03:42:43.633Z,1007.62
2018-07-31T03:43:43.622Z,1007.65
2018-07-31T03:44:43.619Z,1007.61
2018-07-31T03:45:43.601Z,1007.61
2018-07-31T03:46:43.655Z,1007.64
2018-07-31T03:47:43.584Z,1007.66
2018-07-31T03:48:43.573Z,1007.59
2018-07-31T03:49:43.567Z,1007.66
2018-07-31T03:50:43.550Z,1007.67
2018-07-31T03:51:43.611Z,1007.62
2018-07-31T03:52:43.525Z,1007.61
2018-07-31T03:53:43.578Z,1007.58
2018-07-31T03:54:43.504Z,1007.62
2018-07-31T03:55:43.495Z,1007.61
2018-07-31T03:56:43.482Z,1007.56
2018-07-31T03:57:43.549Z,1007.60
2018-07-31T03:58:43.459Z,1007.65
2018-07-31T03:59:44.108Z,1007.64
2018-07-31T04:00:43.440Z,1007.67
2018-07-31T04:01:43.431Z,1007.62
2018-07-31T04:02:43.481Z,1007.60
2018-07-31T04:03:43.411Z,1007.67
2018-07-31T04:04:43.440Z,1007.68
2018-07-31T04:05:43.387Z,1007.69
2018-07-31T04:06:43.388Z,1007.62
2018-07-31T04:07:43.436Z,1007.71
2018-07-31T04:08:43.359Z,1007.75
2018-07-31T04:09:43.346Z,1007.66
2018-07-31T04:10:43.332Z,1007.68
2018-07-31T04:11:43.326Z,1007.67
2018-07-31T04:12:43.377Z,1007.70
2018-07-31T04:13:43.301Z,1007.67
2018-07-31T04:14:43.294Z,1007.69
2018-07-31T04:15:43.283Z,1007.68
2018-07-31T04:16:43.289Z,1007.75
2018-07-31T04:17:43.334Z,1007.71
2018-07-31T04:18:43.249Z,1007.69
2018-07-31T04:19:43.238Z,1007.73
2018-07-31T04:20:44.109Z,1007.72
2018-07-31T04:21:43.215Z,1007.72
2018-07-31T04:22:43.268Z,1007.72
2018-07-31T04:23:43.196Z,1007.73
2018-07-31T04:24:43.191Z,1007.75
2018-07-31T04:25:43.174Z,1007.78
2018-07-31T04:26:43.161Z,1007.72
2018-07-31T04:27:43.213Z,1007.71
2018-07-31T04:28:43.138Z,1007.76
2018-07-31T04:29:43.130Z,1007.76
2018-07-31T04:30:43.124Z,1007.76
2018-07-31T04:31:43.114Z,1007.70
2018-07-31T04:32:43.163Z,1007.72
2018-07-31T04:33:43.094Z,1007.80
2018-07-31T04:34:43.078Z,1007.73
2018-07-31T04:35:43.073Z,1007.77
2018-07-31T04:36:43.055Z,1007.75
2018-07-31T04:37:43.109Z,1007.75
2018-07-31T04:38:43.033Z,1007.70
2018-07-31T04:39:43.020Z,1007.69
2018-07-31T04:40:43.009Z,1007.68
2018-07-31T04:41:43.609Z,1007.71
2018-07-31T04:42:43.055Z,1007.78
2018-07-31T04:43:42.978Z,1007.78
2018-07-31T04:44:42.972Z,1007.80
2018-07-31T04:45:42.959Z,1007.82
2018-07-31T04:46:42.947Z,1007.75
2018-07-31T04:47:43.003Z,1007.83
2018-07-31T04:48:42.931Z,1007.77
2018-07-31T04:49:42.914Z,1007.87
2018-07-31T04:50:42.911Z,1007.77
2018-07-31T04:51:42.898Z,1007.80
2018-07-31T04:52:42.955Z,1007.84
2018-07-31T04:53:42.872Z,1007.83
2018-07-31T04:54:42.863Z,1007.83
2018-07-31T04:55:42.850Z,1007.86
2018-07-31T04:56:42.893Z,1007.87
2018-07-31T04:57:42.895Z,1007.83
2018-07-31T04:58:42.818Z,1007.85
2018-07-31T04:59:42.806Z,1007.83
2018-07-31T05:00:42.798Z,1007.85
2018-07-31T05:01:42.787Z,1007.80
2018-07-31T05:02:43.181Z,1007.86
2018-07-31T05:03:42.770Z,1007.86
2018-07-31T05:04:42.756Z,1007.86
2018-07-31T05:05:42.745Z,1007.86
2018-07-31T05:06:42.737Z,1007.87
2018-07-31T05:07:43.181Z,1007.85
2018-07-31T05:08:42.712Z,1007.83
2018-07-31T05:09:42.704Z,1007.85
2018-07-31T05:10:42.692Z,1007.85
2018-07-31T05:11:42.702Z,1007.87
2018-07-31T05:12:42.736Z,1007.83
2018-07-31T05:13:42.659Z,1007.84
2018-07-31T05:14:42.648Z,1007.89
2018-07-31T05:15:42.638Z,1007.88
2018-07-31T05:16:42.636Z,1007.90
2018-07-31T05:17:42.682Z,1007.91
2018-07-31T05:18:42.613Z,1007.88
2018-07-31T05:19:42.675Z,1007.83
2018-07-31T05:20:42.656Z,1007.81
2018-07-31T05:21:42.656Z,1007.84
2018-07-31T05:22:42.690Z,1007.81
2018-07-31T05:23:43.116Z,1007.89
2018-07-31T05:24:43.145Z,1007.82
2018-07-31T05:25:42.543Z,1007.86
2018-07-31T05:26:42.529Z,1007.84
2018-07-31T05:32:32.137Z,1007.93
2018-07-31T05:33:31.558Z,1007.91
2018-07-31T05:34:31.507Z,1007.98
2018-07-31T05:35:31.372Z,1007.97
2018-07-31T05:36:32.529Z,1008.02
2018-07-31T05:37:31.540Z,1007.96
2018-07-31T05:38:31.399Z,1008.02
2018-07-31T05:39:31.570Z,1007.97
2018-07-31T05:40:39.939Z,1007.94
2018-07-31T05:54:33.829Z,1008.19
2018-07-31T05:55:33.490Z,1008.26
2018-07-31T05:56:33.473Z,1008.28
2018-07-31T05:57:33.539Z,1008.27
2018-07-31T05:58:33.555Z,1008.31
2018-07-31T05:59:33.451Z,1008.31
2018-07-31T06:00:34.079Z,1008.32
2018-07-31T06:01:33.421Z,1008.30
2018-07-31T06:02:33.415Z,1008.27
2018-07-31T06:03:33.504Z,1008.32
2018-07-31T06:04:33.388Z,1008.35
2018-07-31T06:05:33.386Z,1008.34
2018-07-31T06:06:33.368Z,1008.30
2018-07-31T06:07:33.379Z,1008.24
2018-07-31T06:08:33.408Z,1008.32
2018-07-31T06:09:33.393Z,1008.36
2018-07-31T06:10:33.327Z,1008.30
2018-07-31T06:11:33.331Z,1008.33
2018-07-31T06:12:33.302Z,1008.28
2018-07-31T06:13:33.381Z,1008.39
2018-07-31T06:14:33.286Z,1008.39
2018-07-31T06:15:34.093Z,1008.37
2018-07-31T06:16:33.268Z,1008.34
2018-07-31T06:17:33.276Z,1008.37
2018-07-31T06:18:33.323Z,1008.48
2018-07-31T06:19:33.229Z,1008.48
2018-07-31T06:20:33.232Z,1008.44
2018-07-31T06:21:33.218Z,1008.41
2018-07-31T06:24:04.361Z,1008.44
2018-07-31T06:25:04.307Z,1008.48
2018-07-31T06:26:04.256Z,1008.50
2018-07-31T06:27:04.223Z,1008.45
2018-07-31T06:28:11.827Z,1008.49
2018-07-31T06:29:04.115Z,1008.43
2018-07-31T06:30:04.207Z,1008.46
2018-07-31T06:31:04.079Z,1008.41
2018-07-31T06:32:04.140Z,1008.43
2018-07-31T06:33:04.041Z,1008.48
2018-07-31T06:34:04.062Z,1008.46
2018-07-31T06:35:04.745Z,1008.44
2018-07-31T06:36:03.980Z,1008.46
2018-07-31T06:37:03.968Z,1008.43
2018-07-31T06:38:03.965Z,1008.51
2018-07-31T06:39:04.015Z,1008.53
2018-07-31T06:40:03.949Z,1008.58
2018-07-31T06:41:03.929Z,1008.54
2018-07-31T06:42:03.918Z,1008.63
2018-07-31T06:43:03.910Z,1008.56
2018-07-31T06:44:03.965Z,1008.52
2018-07-31T06:45:03.888Z,1008.52
2018-07-31T06:46:03.874Z,1008.47
2018-07-31T06:47:03.968Z,1008.56
2018-07-31T06:48:03.855Z,1008.45
2018-07-31T06:49:04.317Z,1008.54
2018-07-31T06:50:03.838Z,1008.50
2018-07-31T06:51:03.856Z,1008.53
2018-07-31T06:52:03.813Z,1008.52
2018-07-31T06:53:03.802Z,1008.43
2018-07-31T06:54:03.864Z,1008.43
2018-07-31T06:55:03.782Z,1008.42
2018-07-31T06:56:03.774Z,1008.44
2018-07-31T06:57:03.789Z,1008.41
2018-07-31T06:58:03.754Z,1008.44
2018-07-31T06:59:03.812Z,1008.43
2018-07-31T07:00:03.815Z,1008.41
2018-07-31T07:01:11.591Z,1008.50
2018-07-31T07:02:13.326Z,1008.54
2018-07-31T07:04:10.523Z,1008.58
2018-07-31T07:05:18.641Z,1008.60
2018-07-31T07:06:10.423Z,1008.62
2018-07-31T07:07:18.169Z,1008.71
2018-07-31T07:08:10.359Z,1008.67
2018-07-31T07:11:43.321Z,1008.67
2018-07-31T07:15:02.936Z,1008.73
2018-07-31T07:17:11.929Z,1008.80
2018-07-31T07:18:11.836Z,1008.82
2018-07-31T07:19:11.854Z,1008.74
2018-07-31T07:20:11.739Z,1008.84
2018-07-31T07:21:11.718Z,1008.89
2018-07-31T07:22:11.693Z,1008.91
2018-07-31T07:23:12.583Z,1008.77
2018-07-31T07:24:11.758Z,1008.88
2018-07-31T07:25:11.674Z,1008.96
2018-07-31T07:26:11.662Z,1008.90
2018-07-31T07:27:11.649Z,1008.98
2018-07-31T07:28:11.641Z,1009.02
2018-07-31T07:29:11.700Z,1008.96
2018-07-31T07:30:11.613Z,1008.92
2018-07-31T07:31:11.612Z,1008.78
2018-07-31T07:32:11.601Z,1008.76
2018-07-31T07:33:11.588Z,1008.78
2018-07-31T07:34:11.656Z,1008.82
2018-07-31T07:35:11.568Z,1008.81
2018-07-31T07:36:12.464Z,1008.85
2018-07-31T07:37:11.546Z,1009.00
2018-07-31T07:38:12.460Z,1009.08
2018-07-31T07:39:11.597Z,1009.01
2018-07-31T07:40:11.528Z,1008.81
2018-07-31T07:41:11.515Z,1008.69
2018-07-31T07:42:11.499Z,1008.69
2018-07-31T07:43:11.490Z,1008.59
2018-07-31T07:44:11.550Z,1008.57
2018-07-31T07:45:11.468Z,1008.60
2018-07-31T07:46:11.462Z,1008.63
2018-07-31T07:47:11.461Z,1008.66
2018-07-31T07:48:11.440Z,1008.68
2018-07-31T07:49:11.505Z,1008.72
2018-07-31T07:50:11.423Z,1008.79
2018-07-31T07:51:11.425Z,1008.84
2018-07-31T07:52:11.398Z,1008.78
2018-07-31T07:53:11.392Z,1008.99
2018-07-31T07:54:11.543Z,1009.04
2018-07-31T07:55:11.370Z,1009.07
2018-07-31T07:56:11.362Z,1008.79
2018-07-31T07:57:11.354Z,1009.04
2018-07-31T07:58:11.340Z,1009.11
2018-07-31T07:59:11.542Z,1009.05
2018-07-31T08:00:11.324Z,1009.08
2018-07-31T08:01:11.318Z,1009.07
2018-07-31T08:02:11.331Z,1009.08
2018-07-31T08:03:11.343Z,1008.77
2018-07-31T08:04:11.305Z,1008.61
2018-07-31T08:05:11.340Z,1008.99
2018-07-31T08:06:11.265Z,1008.74
2018-07-31T08:07:11.259Z,1008.87
2018-07-31T08:08:11.250Z,1008.76
2018-07-31T08:09:11.237Z,1009.00
2018-07-31T08:10:11.311Z,1008.55
2018-07-31T08:11:11.224Z,1008.95
2018-07-31T08:12:11.259Z,1008.99
2018-07-31T08:13:11.201Z,1008.97
2018-07-31T08:14:11.961Z,1008.76
2018-07-31T08:15:11.245Z,1008.59
2018-07-31T08:16:11.189Z,1008.93
2018-07-31T08:17:11.167Z,1009.00
2018-07-31T08:18:11.164Z,1008.65
2018-07-31T08:19:11.153Z,1008.67
2018-07-31T08:20:14.548Z,1009.00
2018-07-31T08:21:11.134Z,1008.87
2018-07-31T08:22:11.126Z,1009.03
2018-07-31T08:23:11.117Z,1009.04
2018-07-31T08:24:11.108Z,1009.11
2018-07-31T08:25:11.158Z,1009.17
2018-07-31T08:26:11.089Z,1009.17
2018-07-31T08:27:11.083Z,1008.94
2018-07-31T08:28:11.070Z,1009.19
2018-07-31T08:29:11.064Z,1009.16
2018-07-31T08:30:11.117Z,1009.15
2018-07-31T08:31:11.045Z,1009.08
2018-07-31T08:32:11.038Z,1009.23
2018-07-31T08:33:11.030Z,1009.13
2018-07-31T08:34:11.022Z,1009.18
2018-07-31T08:35:11.085Z,1009.27
2018-07-31T08:36:11.008Z,1009.25
2018-07-31T08:37:11.001Z,1009.25
2018-07-31T08:38:10.988Z,1009.26
2018-07-31T08:39:10.981Z,1009.18
2018-07-31T08:40:11.041Z,1009.31
2018-07-31T08:41:11.971Z,1009.36
2018-07-31T08:42:10.957Z,1009.35
2018-07-31T08:43:10.948Z,1009.30
2018-07-31T08:44:10.940Z,1009.40
2018-07-31T08:45:10.999Z,1009.44
2018-07-31T08:46:10.926Z,1009.43
2018-07-31T08:47:10.918Z,1009.38
2018-07-31T08:48:10.907Z,1009.16
2018-07-31T08:49:10.904Z,1009.11
2018-07-31T08:50:10.957Z,1009.09
2018-07-31T08:51:10.941Z,1009.10
2018-07-31T08:52:10.876Z,1009.20
2018-07-31T08:53:10.868Z,1009.17
2018-07-31T08:54:10.859Z,1008.98
2018-07-31T08:55:10.918Z,1009.04
2018-07-31T08:56:10.848Z,1008.88
2018-07-31T08:57:10.842Z,1008.96
2018-07-31T08:58:10.828Z,1009.37
2018-07-31T08:59:10.819Z,1009.34
2018-07-31T09:00:10.872Z,1009.12
2018-07-31T09:01:10.806Z,1009.23
2018-07-31T09:02:11.454Z,1009.30
2018-07-31T09:03:10.789Z,1009.17
2018-07-31T09:04:10.783Z,1008.99
2018-07-31T09:05:10.833Z,1008.93
2018-07-31T09:06:10.765Z,1009.15
2018-07-31T09:07:10.755Z,1009.07
2018-07-31T09:08:10.755Z,1009.17
2018-07-31T09:09:10.739Z,1008.99
2018-07-31T09:10:10.791Z,1009.11
2018-07-31T09:11:10.722Z,1009.20
2018-07-31T09:12:10.714Z,1009.25
2018-07-31T09:13:10.704Z,1009.26
2018-07-31T09:14:10.699Z,1009.09
2018-07-31T09:15:10.756Z,1009.35
2018-07-31T09:16:10.679Z,1009.51
2018-07-31T09:17:10.679Z,1009.56
2018-07-31T09:18:10.666Z,1009.51
2018-07-31T09:19:10.657Z,1009.50
2018-07-31T09:20:10.715Z,1009.55
2018-07-31T09:21:10.640Z,1009.49
2018-07-31T09:22:10.637Z,1009.54
2018-07-31T09:23:11.450Z,1009.54
2018-07-31T09:24:10.633Z,1009.46
2018-07-31T09:25:10.688Z,1008.97
2018-07-31T09:26:10.603Z,1009.32
2018-07-31T09:27:10.596Z,1009.53
2018-07-31T09:28:10.587Z,1009.50
2018-07-31T09:29:10.581Z,1009.39
2018-07-31T09:30:10.641Z,1009.43
2018-07-31T09:31:10.591Z,1009.56
2018-07-31T09:32:10.559Z,1009.37
2018-07-31T09:33:10.552Z,1009.26
2018-07-31T09:34:10.544Z,1009.37
2018-07-31T09:35:10.605Z,1009.23
2018-07-31T09:36:10.524Z,1009.24
2018-07-31T09:37:10.519Z,1009.33
2018-07-31T09:38:10.555Z,1009.44
2018-07-31T09:39:10.504Z,1009.12
2018-07-31T09:40:10.573Z,1009.20
2018-07-31T09:41:10.487Z,1009.08
2018-07-31T09:42:10.482Z,1008.96
2018-07-31T09:43:10.473Z,1009.19
2018-07-31T09:44:17.989Z,1009.19
2018-07-31T09:45:10.458Z,1009.21
2018-07-31T09:46:10.513Z,1009.01
2018-07-31T09:47:10.442Z,1008.92
2018-07-31T09:48:10.434Z,1008.92
2018-07-31T09:49:10.426Z,1009.08
2018-07-31T09:50:10.418Z,1008.97
2018-07-31T09:51:10.473Z,1009.44
2018-07-31T09:52:10.986Z,1009.59
2018-07-31T09:53:10.392Z,1009.65
2018-07-31T09:54:10.389Z,1009.16
2018-07-31T09:55:10.379Z,1009.34
2018-07-31T09:56:10.430Z,1009.40
2018-07-31T09:57:10.422Z,1009.47
2018-07-31T09:58:10.358Z,1009.26
2018-07-31T09:59:10.401Z,1009.09
2018-07-31T10:00:10.343Z,1009.45
2018-07-31T10:01:10.404Z,1009.00
2018-07-31T10:02:10.337Z,1009.05
2018-07-31T10:03:10.322Z,1008.89
2018-07-31T10:04:10.310Z,1009.57
2018-07-31T10:05:11.034Z,1009.49
2018-07-31T10:06:10.362Z,1009.35
2018-07-31T10:07:10.285Z,1009.14
2018-07-31T10:08:10.280Z,1009.05
2018-07-31T10:09:10.271Z,1008.89
2018-07-31T10:10:10.268Z,1009.23
2018-07-31T10:11:10.329Z,1009.29
2018-07-31T10:12:10.279Z,1008.99
2018-07-31T10:13:10.240Z,1008.97
2018-07-31T10:14:10.234Z,1008.88
2018-07-31T10:15:10.226Z,1009.25
2018-07-31T10:16:10.282Z,1009.33
2018-07-31T10:17:10.215Z,1009.41
2018-07-31T10:18:10.263Z,1009.36
2018-07-31T10:19:10.195Z,1009.59
2018-07-31T10:20:10.194Z,1009.59
2018-07-31T10:21:10.239Z,1009.46
2018-07-31T10:22:10.173Z,1009.07
2018-07-31T10:23:10.161Z,1008.93
2018-07-31T10:24:10.164Z,1008.84
2018-07-31T10:25:10.147Z,1008.81
2018-07-31T10:26:10.554Z,1008.79
2018-07-31T10:27:10.128Z,1008.78
2018-07-31T10:28:10.119Z,1009.11
2018-07-31T10:29:10.113Z,1008.83
2018-07-31T10:30:10.105Z,1008.79
2018-07-31T10:31:10.155Z,1008.92
2018-07-31T10:32:10.086Z,1008.81
2018-07-31T10:33:10.082Z,1008.81
2018-07-31T10:34:10.068Z,1008.88
2018-07-31T10:35:10.057Z,1008.88
2018-07-31T10:36:10.113Z,1008.90
2018-07-31T10:37:10.049Z,1008.97
2018-07-31T10:38:10.033Z,1008.92
2018-07-31T10:39:10.027Z,1009.62
2018-07-31T10:40:10.019Z,1009.66
2018-07-31T10:41:10.068Z,1009.00
2018-07-31T10:42:10.001Z,1008.96
2018-07-31T10:43:09.990Z,1009.62
2018-07-31T10:44:09.985Z,1008.95
2018-07-31T10:45:09.973Z,1008.91
2018-07-31T10:46:10.029Z,1009.22
2018-07-31T10:47:10.478Z,1009.00
2018-07-31T10:48:09.946Z,1008.93
2018-07-31T10:49:09.943Z,1008.89
2018-07-31T10:50:09.934Z,1009.19
2018-07-31T10:51:10.072Z,1008.95
2018-07-31T10:52:09.918Z,1008.95
2018-07-31T10:53:09.916Z,1008.97
2018-07-31T10:54:09.895Z,1008.87
2018-07-31T10:55:17.999Z,1008.91
2018-07-31T10:56:18.133Z,1008.87
2018-07-31T10:57:18.014Z,1008.81
2018-07-31T10:58:18.515Z,1008.76
2018-07-31T10:59:17.935Z,1008.75
2018-07-31T11:00:09.885Z,1008.78
2018-07-31T11:01:09.894Z,1008.83
2018-07-31T11:02:09.820Z,1009.03
2018-07-31T11:03:17.345Z,1008.98
2018-07-31T11:04:17.920Z,1008.98
2018-07-31T11:05:18.394Z,1008.99
2018-07-31T11:06:17.412Z,1008.87
2018-07-31T11:07:17.298Z,1009.56
2018-07-31T11:08:09.774Z,1009.47
2018-07-31T11:09:09.758Z,1008.94
2018-07-31T11:10:09.751Z,1008.86
2018-07-31T11:11:09.800Z,1009.28
2018-07-31T11:12:09.730Z,1009.72
2018-07-31T11:13:09.884Z,1008.94
2018-07-31T11:14:09.721Z,1008.85
2018-07-31T11:15:09.703Z,1008.83
2018-07-31T11:16:09.755Z,1009.15
2018-07-31T11:17:10.330Z,1008.79
2018-07-31T11:18:09.677Z,1008.85
2018-07-31T11:19:09.668Z,1008.81
2018-07-31T11:20:09.658Z,1008.76
2018-07-31T11:21:09.828Z,1008.75
2018-07-31T11:22:09.641Z,1008.77
2018-07-31T11:23:09.701Z,1008.73
2018-07-31T11:24:09.624Z,1008.77
2018-07-31T11:25:09.614Z,1008.73
2018-07-31T11:26:09.602Z,1008.69
2018-07-31T11:27:09.655Z,1008.64
2018-07-31T11:28:10.325Z,1008.69
2018-07-31T11:29:09.577Z,1008.62
2018-07-31T11:30:09.566Z,1008.71
2018-07-31T11:31:09.557Z,1008.68
2018-07-31T11:32:09.608Z,1008.64
2018-07-31T11:33:09.556Z,1008.67
2018-07-31T11:34:09.531Z,1008.65
2018-07-31T11:35:09.519Z,1008.67
2018-07-31T11:36:09.508Z,1008.74
2018-07-31T11:37:09.557Z,1008.74
2018-07-31T11:38:09.488Z,1008.72
2018-07-31T11:39:09.480Z,1008.72
2018-07-31T11:40:09.471Z,1008.66
2018-07-31T11:41:09.460Z,1008.62
2018-07-31T11:42:09.510Z,1008.66
2018-07-31T11:43:09.443Z,1008.70
2018-07-31T11:44:09.428Z,1009.27
2018-07-31T11:45:09.424Z,1009.20
2018-07-31T11:46:09.415Z,1009.46
2018-07-31T11:47:09.462Z,1008.72
2018-07-31T11:48:09.390Z,1008.68
2018-07-31T11:49:10.329Z,1008.76
2018-07-31T11:50:09.431Z,1008.94
2018-07-31T11:51:09.365Z,1009.19
2018-07-31T11:52:09.420Z,1009.55
2018-07-31T11:53:09.345Z,1009.61
2018-07-31T11:54:09.337Z,1009.69
2018-07-31T11:55:09.329Z,1009.32
2018-07-31T11:56:09.339Z,1008.89
2018-07-31T11:57:09.378Z,1009.50
2018-07-31T11:58:09.305Z,1008.89
2018-07-31T11:59:09.297Z,1008.83
2018-07-31T12:00:09.290Z,1008.92
2018-07-31T12:01:09.282Z,1008.74
2018-07-31T12:02:09.341Z,1008.72
2018-07-31T12:03:09.262Z,1008.73
2018-07-31T12:04:09.266Z,1008.67
2018-07-31T12:05:09.243Z,1008.57
2018-07-31T12:06:09.234Z,1008.64
2018-07-31T12:07:09.286Z,1008.60
2018-07-31T12:08:09.219Z,1008.60
2018-07-31T12:09:09.208Z,1008.54
2018-07-31T12:10:09.826Z,1008.55
2018-07-31T12:11:09.189Z,1008.51
2018-07-31T12:12:09.239Z,1008.51
2018-07-31T12:13:09.170Z,1008.58
2018-07-31T12:14:09.161Z,1008.55
2018-07-31T12:15:09.156Z,1008.58
2018-07-31T12:16:09.142Z,1008.57
2018-07-31T12:17:09.192Z,1008.50
2018-07-31T12:18:09.131Z,1008.63
2018-07-31T12:19:09.164Z,1008.64
2018-07-31T12:20:09.103Z,1008.60
2018-07-31T12:21:09.094Z,1008.62
2018-07-31T12:22:09.144Z,1008.64
2018-07-31T12:23:09.075Z,1009.19
2018-07-31T12:24:09.066Z,1008.78
2018-07-31T12:25:09.056Z,1008.91
2018-07-31T12:26:09.050Z,1009.03
2018-07-31T12:27:09.113Z,1009.30
2018-07-31T12:28:09.028Z,1008.88
2018-07-31T12:29:09.024Z,1009.28
2018-07-31T12:30:09.008Z,1009.38
2018-07-31T12:31:09.832Z,1009.40
2018-07-31T12:32:09.055Z,1009.37